AFL7290 UUEE-UUDL
Flight info
| Callsign | AFL7290 |
|---|---|
| Flight time | 0h 36m |
| Altitude | 24000 |
| Route | N0450F300 RILPO T753 RANTO |
| Aircraft | A320/M-VGDW/C |
Departure
| Time | 2026-04-12 03:28 |
|---|---|
| Airport | Sheremetyevo International Airport (UUEE) |
Arrival
| Time | 2026-04-12 04:04 |
|---|---|
| Airport | Golden Ring Yaroslavl International Airport (UUDL) |
| Time | Latitude | Longitude | Altitude | Speed | Heading |
|---|---|---|---|---|---|
| 2026-04-12 03:07 | 55.97840 | 37.41924 | 645 ft | 0 kts | 279° |
| 2026-04-12 03:19 | 55.97839 | 37.41932 | 645 ft | 2 kts | 277° |
| 2026-04-12 03:19 | 55.97837 | 37.41960 | 645 ft | 2 kts | 278° |
| 2026-04-12 03:19 | 55.97835 | 37.41988 | 645 ft | 2 kts | 278° |
| 2026-04-12 03:20 | 55.97833 | 37.42016 | 645 ft | 2 kts | 278° |
| 2026-04-12 03:20 | 55.97831 | 37.42044 | 645 ft | 2 kts | 273° |
| 2026-04-12 03:20 | 55.97834 | 37.42063 | 645 ft | 2 kts | 202° |
| 2026-04-12 03:20 | 55.97848 | 37.42063 | 645 ft | 2 kts | 165° |
| 2026-04-12 03:21 | 55.97863 | 37.42055 | 645 ft | 1 kts | 165° |
| 2026-04-12 03:22 | 55.97855 | 37.42059 | 645 ft | 3 kts | 165° |
| 2026-04-12 03:22 | 55.97825 | 37.42073 | 645 ft | 6 kts | 165° |
| 2026-04-12 03:22 | 55.97774 | 37.42098 | 645 ft | 9 kts | 165° |
| 2026-04-12 03:23 | 55.97700 | 37.42121 | 645 ft | 12 kts | 199° |
| 2026-04-12 03:23 | 55.97653 | 37.41978 | 645 ft | 16 kts | 255° |
| 2026-04-12 03:23 | 55.97623 | 37.41771 | 645 ft | 19 kts | 255° |
| 2026-04-12 03:23 | 55.97587 | 37.41526 | 645 ft | 22 kts | 255° |
| 2026-04-12 03:24 | 55.97545 | 37.41256 | 645 ft | 23 kts | 255° |
| 2026-04-12 03:24 | 55.97504 | 37.40977 | 645 ft | 24 kts | 255° |
| 2026-04-12 03:24 | 55.97461 | 37.40688 | 645 ft | 25 kts | 255° |
| 2026-04-12 03:24 | 55.97416 | 37.40388 | 645 ft | 25 kts | 256° |
| 2026-04-12 03:25 | 55.97379 | 37.40142 | 645 ft | 21 kts | 255° |
| 2026-04-12 03:25 | 55.97341 | 37.39887 | 645 ft | 22 kts | 255° |
| 2026-04-12 03:25 | 55.97302 | 37.39623 | 645 ft | 22 kts | 255° |
| 2026-04-12 03:25 | 55.97259 | 37.39349 | 645 ft | 23 kts | 255° |
| 2026-04-12 03:26 | 55.97216 | 37.39065 | 645 ft | 24 kts | 255° |
| 2026-04-12 03:26 | 55.97172 | 37.38771 | 645 ft | 25 kts | 255° |
| 2026-04-12 03:26 | 55.97097 | 37.38659 | 645 ft | 15 kts | 166° |
| 2026-04-12 03:26 | 55.97004 | 37.38747 | 645 ft | 16 kts | 108° |
| 2026-04-12 03:27 | 55.97004 | 37.38814 | 645 ft | 0 kts | 76° |
| 2026-04-12 03:27 | 55.97023 | 37.38949 | 645 ft | 41 kts | 75° |
| 2026-04-12 03:27 | 55.97157 | 37.39840 | 645 ft | 105 kts | 75° |
| 2026-04-12 03:27 | 55.97381 | 37.41360 | 707 ft | 143 kts | 76° |
| 2026-04-12 03:28 | 55.97622 | 37.43063 | 1267 ft | 141 kts | 77° |
| 2026-04-12 03:28 | 55.97859 | 37.44765 | 1878 ft | 141 kts | 77° |
| 2026-04-12 03:28 | 55.98100 | 37.46479 | 2372 ft | 144 kts | 77° |
| 2026-04-12 03:28 | 55.98348 | 37.48231 | 2841 ft | 147 kts | 78° |
| 2026-04-12 03:29 | 55.98603 | 37.50032 | 3281 ft | 151 kts | 79° |
| 2026-04-12 03:29 | 55.98860 | 37.51858 | 3748 ft | 154 kts | 79° |
| 2026-04-12 03:29 | 55.99140 | 37.53868 | 3912 ft | 182 kts | 79° |
| 2026-04-12 03:29 | 55.99480 | 37.56305 | 3970 ft | 225 kts | 78° |
| 2026-04-12 03:30 | 55.99896 | 37.59261 | 4384 ft | 254 kts | 78° |
| 2026-04-12 03:30 | 56.00321 | 37.62251 | 5626 ft | 253 kts | 78° |
| 2026-04-12 03:30 | 56.00798 | 37.65343 | 6648 ft | 263 kts | 71° |
| 2026-04-12 03:30 | 56.01808 | 37.68098 | 7731 ft | 271 kts | 47° |
| 2026-04-12 03:31 | 56.03338 | 37.70145 | 8745 ft | 278 kts | 36° |
| 2026-04-12 03:31 | 56.04978 | 37.72057 | 9728 ft | 283 kts | 34° |
| 2026-04-12 03:31 | 56.06601 | 37.74080 | 10676 ft | 288 kts | 39° |
| 2026-04-12 03:31 | 56.08205 | 37.76481 | 11078 ft | 310 kts | 45° |
| 2026-04-12 03:32 | 56.09742 | 37.79168 | 12070 ft | 308 kts | 46° |
| 2026-04-12 03:32 | 56.11289 | 37.81892 | 12877 ft | 313 kts | 47° |
| 2026-04-12 03:32 | 56.12915 | 37.84528 | 13663 ft | 319 kts | 38° |
| 2026-04-12 03:32 | 56.14866 | 37.86375 | 14403 ft | 325 kts | 21° |
| 2026-04-12 03:33 | 56.17124 | 37.87199 | 15124 ft | 330 kts | 8° |
| 2026-04-12 03:33 | 56.19422 | 37.87654 | 15768 ft | 335 kts | 7° |
| 2026-04-12 03:33 | 56.21747 | 37.88072 | 16429 ft | 337 kts | 7° |
| 2026-04-12 03:33 | 56.24066 | 37.88465 | 17044 ft | 340 kts | 7° |
| 2026-04-12 03:34 | 56.26436 | 37.88852 | 17632 ft | 343 kts | 6° |
| 2026-04-12 03:34 | 56.28820 | 37.89212 | 18202 ft | 345 kts | 6° |
| 2026-04-12 03:34 | 56.31227 | 37.89540 | 18742 ft | 348 kts | 6° |
| 2026-04-12 03:34 | 56.33656 | 37.89866 | 19268 ft | 350 kts | 6° |
| 2026-04-12 03:35 | 56.36095 | 37.90191 | 19778 ft | 352 kts | 6° |
| 2026-04-12 03:35 | 56.38549 | 37.90516 | 20280 ft | 354 kts | 6° |
| 2026-04-12 03:35 | 56.41022 | 37.90850 | 20754 ft | 356 kts | 6° |
| 2026-04-12 03:35 | 56.43463 | 37.91181 | 21275 ft | 356 kts | 6° |
| 2026-04-12 03:36 | 56.45969 | 37.91522 | 21744 ft | 358 kts | 6° |
| 2026-04-12 03:36 | 56.48440 | 37.91858 | 22136 ft | 363 kts | 6° |
| 2026-04-12 03:36 | 56.50962 | 37.92201 | 22272 ft | 363 kts | 6° |
| 2026-04-12 03:36 | 56.53473 | 37.92541 | 22307 ft | 361 kts | 6° |
| 2026-04-12 03:37 | 56.55979 | 37.92882 | 22316 ft | 361 kts | 7° |
| 2026-04-12 03:37 | 56.58480 | 37.93223 | 22318 ft | 360 kts | 7° |
| 2026-04-12 03:37 | 56.60990 | 37.93565 | 22319 ft | 360 kts | 7° |
| 2026-04-12 03:37 | 56.63494 | 37.93907 | 22319 ft | 360 kts | 7° |
| 2026-04-12 03:38 | 56.65977 | 37.94449 | 22317 ft | 357 kts | 15° |
| 2026-04-12 03:38 | 56.68332 | 37.95793 | 22319 ft | 353 kts | 26° |
| 2026-04-12 03:38 | 56.70468 | 37.97940 | 22319 ft | 349 kts | 38° |
| 2026-04-12 03:38 | 56.72294 | 38.00716 | 22322 ft | 346 kts | 45° |
| 2026-04-12 03:39 | 56.74060 | 38.03709 | 22321 ft | 346 kts | 46° |
| 2026-04-12 03:39 | 56.75806 | 38.06722 | 22320 ft | 344 kts | 46° |
| 2026-04-12 03:39 | 56.77539 | 38.09747 | 22320 ft | 344 kts | 46° |
| 2026-04-12 03:39 | 56.79259 | 38.12779 | 22320 ft | 344 kts | 47° |
| 2026-04-12 03:40 | 56.80972 | 38.15819 | 22320 ft | 343 kts | 47° |
| 2026-04-12 03:40 | 56.82657 | 38.18822 | 22321 ft | 342 kts | 47° |
| 2026-04-12 03:40 | 56.84361 | 38.21869 | 22321 ft | 342 kts | 47° |
| 2026-04-12 03:40 | 56.86055 | 38.24909 | 22321 ft | 341 kts | 47° |
| 2026-04-12 03:41 | 56.87789 | 38.27878 | 22321 ft | 341 kts | 44° |
| 2026-04-12 03:41 | 56.89589 | 38.30709 | 22321 ft | 342 kts | 44° |
| 2026-04-12 03:41 | 56.91397 | 38.33538 | 22322 ft | 341 kts | 44° |
| 2026-04-12 03:41 | 56.93176 | 38.36320 | 22322 ft | 340 kts | 44° |
| 2026-04-12 03:42 | 56.94971 | 38.39130 | 22322 ft | 339 kts | 44° |
| 2026-04-12 03:42 | 56.96765 | 38.41941 | 22322 ft | 339 kts | 44° |
| 2026-04-12 03:42 | 56.98558 | 38.44754 | 22322 ft | 339 kts | 44° |
| 2026-04-12 03:42 | 57.00348 | 38.47565 | 22323 ft | 338 kts | 44° |
| 2026-04-12 03:43 | 57.02130 | 38.50367 | 22289 ft | 339 kts | 44° |
| 2026-04-12 03:43 | 57.03925 | 38.53192 | 21956 ft | 338 kts | 44° |
| 2026-04-12 03:43 | 57.05703 | 38.55995 | 21583 ft | 335 kts | 44° |
| 2026-04-12 03:43 | 57.07467 | 38.58778 | 21242 ft | 332 kts | 44° |
| 2026-04-12 03:44 | 57.09191 | 38.61503 | 20897 ft | 329 kts | 44° |
| 2026-04-12 03:44 | 57.10923 | 38.64243 | 20553 ft | 327 kts | 44° |
| 2026-04-12 03:44 | 57.12641 | 38.66967 | 20204 ft | 324 kts | 44° |
| 2026-04-12 03:44 | 57.14350 | 38.69678 | 19861 ft | 322 kts | 44° |
| 2026-04-12 03:45 | 57.16048 | 38.72377 | 19528 ft | 320 kts | 44° |
| 2026-04-12 03:45 | 57.17707 | 38.75017 | 19192 ft | 318 kts | 44° |
| 2026-04-12 03:45 | 57.19378 | 38.77679 | 18865 ft | 317 kts | 44° |
| 2026-04-12 03:45 | 57.21043 | 38.80335 | 18527 ft | 316 kts | 43° |
| 2026-04-12 03:46 | 57.22701 | 38.82982 | 18199 ft | 315 kts | 43° |
| 2026-04-12 03:46 | 57.24356 | 38.85628 | 17871 ft | 314 kts | 43° |
| 2026-04-12 03:46 | 57.26005 | 38.88265 | 17547 ft | 313 kts | 43° |
| 2026-04-12 03:46 | 57.27650 | 38.90902 | 17225 ft | 312 kts | 43° |
| 2026-04-12 03:47 | 57.29289 | 38.93530 | 16902 ft | 311 kts | 43° |
| 2026-04-12 03:47 | 57.30918 | 38.96148 | 16582 ft | 310 kts | 43° |
| 2026-04-12 03:47 | 57.32545 | 38.98765 | 16263 ft | 309 kts | 43° |
| 2026-04-12 03:47 | 57.34148 | 39.01346 | 15947 ft | 309 kts | 43° |
| 2026-04-12 03:48 | 57.35767 | 39.03955 | 15628 ft | 308 kts | 43° |
| 2026-04-12 03:48 | 57.37384 | 39.06566 | 15308 ft | 307 kts | 43° |
| 2026-04-12 03:48 | 57.39000 | 39.09177 | 14988 ft | 307 kts | 43° |
| 2026-04-12 03:48 | 57.40604 | 39.11774 | 14669 ft | 306 kts | 43° |
| 2026-04-12 03:49 | 57.42204 | 39.14368 | 14349 ft | 305 kts | 43° |
| 2026-04-12 03:49 | 57.43800 | 39.16955 | 14028 ft | 304 kts | 43° |
| 2026-04-12 03:49 | 57.45389 | 39.19535 | 13711 ft | 303 kts | 43° |
| 2026-04-12 03:49 | 57.46921 | 39.22192 | 13390 ft | 300 kts | 51° |
| 2026-04-12 03:50 | 57.47976 | 39.25503 | 12991 ft | 299 kts | 70° |
| 2026-04-12 03:50 | 57.48359 | 39.29258 | 12429 ft | 303 kts | 89° |
| 2026-04-12 03:50 | 57.48386 | 39.33230 | 12036 ft | 302 kts | 90° |
| 2026-04-12 03:50 | 57.48388 | 39.37069 | 11709 ft | 299 kts | 91° |
| 2026-04-12 03:51 | 57.48373 | 39.40933 | 11382 ft | 296 kts | 91° |
| 2026-04-12 03:51 | 57.48346 | 39.44712 | 11207 ft | 287 kts | 91° |
| 2026-04-12 03:51 | 57.48313 | 39.48393 | 10923 ft | 284 kts | 91° |
| 2026-04-12 03:51 | 57.48275 | 39.52066 | 10585 ft | 283 kts | 92° |
| 2026-04-12 03:52 | 57.48232 | 39.55686 | 10516 ft | 281 kts | 92° |
| 2026-04-12 03:52 | 57.48187 | 39.59300 | 10372 ft | 278 kts | 92° |
| 2026-04-12 03:52 | 57.48140 | 39.62897 | 10092 ft | 279 kts | 92° |
| 2026-04-12 03:52 | 57.48093 | 39.66468 | 9796 ft | 278 kts | 92° |
| 2026-04-12 03:53 | 57.48044 | 39.70041 | 9488 ft | 276 kts | 92° |
| 2026-04-12 03:53 | 57.47993 | 39.73627 | 9202 ft | 278 kts | 92° |
| 2026-04-12 03:53 | 57.47939 | 39.77233 | 8931 ft | 280 kts | 92° |
| 2026-04-12 03:53 | 57.47886 | 39.80842 | 8681 ft | 277 kts | 92° |
| 2026-04-12 03:54 | 57.47832 | 39.84453 | 8388 ft | 280 kts | 92° |
| 2026-04-12 03:54 | 57.47776 | 39.88050 | 8158 ft | 278 kts | 92° |
| 2026-04-12 03:54 | 57.47720 | 39.91633 | 7943 ft | 276 kts | 92° |
| 2026-04-12 03:54 | 57.47663 | 39.95213 | 7621 ft | 276 kts | 92° |
| 2026-04-12 03:55 | 57.47606 | 39.98751 | 7239 ft | 274 kts | 92° |
| 2026-04-12 03:55 | 57.47548 | 40.02227 | 6821 ft | 271 kts | 92° |
| 2026-04-12 03:55 | 57.47488 | 40.05720 | 6399 ft | 268 kts | 92° |
| 2026-04-12 03:55 | 57.47429 | 40.09149 | 6070 ft | 263 kts | 92° |
| 2026-04-12 03:56 | 57.47370 | 40.12523 | 5685 ft | 260 kts | 92° |
| 2026-04-12 03:56 | 57.47309 | 40.15926 | 5157 ft | 263 kts | 92° |
| 2026-04-12 03:56 | 57.47249 | 40.19310 | 4796 ft | 260 kts | 92° |
| 2026-04-12 03:56 | 57.47301 | 40.22627 | 4458 ft | 255 kts | 83° |
| 2026-04-12 03:57 | 57.47743 | 40.25767 | 4145 ft | 248 kts | 69° |
| 2026-04-12 03:57 | 57.48445 | 40.28653 | 3826 ft | 242 kts | 65° |
| 2026-04-12 03:57 | 57.49153 | 40.31411 | 3524 ft | 237 kts | 65° |
| 2026-04-12 03:57 | 57.49868 | 40.34148 | 3234 ft | 234 kts | 64° |
| 2026-04-12 03:58 | 57.50578 | 40.36847 | 2945 ft | 231 kts | 65° |
| 2026-04-12 03:58 | 57.51288 | 40.39526 | 2676 ft | 232 kts | 64° |
| 2026-04-12 03:58 | 57.52023 | 40.42287 | 2555 ft | 242 kts | 64° |
| 2026-04-12 03:58 | 57.52776 | 40.45094 | 2520 ft | 238 kts | 62° |
| 2026-04-12 03:59 | 57.53818 | 40.47281 | 2498 ft | 218 kts | 35° |
| 2026-04-12 03:59 | 57.55136 | 40.48198 | 2507 ft | 196 kts | 9° |
| 2026-04-12 03:59 | 57.56437 | 40.47918 | 2527 ft | 191 kts | 344° |
| 2026-04-12 03:59 | 57.57678 | 40.46946 | 2474 ft | 193 kts | 338° |
| 2026-04-12 04:00 | 57.58908 | 40.45905 | 2398 ft | 193 kts | 337° |
| 2026-04-12 04:00 | 57.60105 | 40.44853 | 2319 ft | 186 kts | 336° |
| 2026-04-12 04:00 | 57.61263 | 40.43812 | 2240 ft | 184 kts | 336° |
| 2026-04-12 04:00 | 57.62278 | 40.42391 | 2145 ft | 186 kts | 309° |
| 2026-04-12 04:01 | 57.62684 | 40.40132 | 2067 ft | 187 kts | 273° |
| 2026-04-12 04:01 | 57.62322 | 40.37841 | 1992 ft | 186 kts | 237° |
| 2026-04-12 04:01 | 57.61494 | 40.36013 | 1939 ft | 184 kts | 232° |
| 2026-04-12 04:01 | 57.60820 | 40.34022 | 1866 ft | 185 kts | 239° |
| 2026-04-12 04:02 | 57.60220 | 40.31916 | 1784 ft | 182 kts | 242° |
| 2026-04-12 04:02 | 57.59221 | 40.28135 | 1495 ft | 147 kts | 243° |
| 2026-04-12 04:02 | 57.58783 | 40.26449 | 1301 ft | 143 kts | 244° |
| 2026-04-12 04:03 | 57.58355 | 40.24786 | 1122 ft | 142 kts | 243° |
| 2026-04-12 04:03 | 57.58068 | 40.23685 | 1001 ft | 142 kts | 243° |
| 2026-04-12 04:03 | 57.57636 | 40.22022 | 812 ft | 142 kts | 244° |
| 2026-04-12 04:03 | 57.57207 | 40.20368 | 624 ft | 142 kts | 244° |
| 2026-04-12 04:04 | 57.56780 | 40.18720 | 431 ft | 141 kts | 244° |
| 2026-04-12 04:04 | 57.56359 | 40.17095 | 320 ft | 127 kts | 244° |
| 2026-04-12 04:04 | 57.56146 | 40.16264 | 320 ft | 21 kts | 256° |
| 2026-04-12 04:04 | 57.56098 | 40.16193 | 320 ft | 13 kts | 80° |
| 2026-04-12 04:05 | 57.56156 | 40.16355 | 320 ft | 18 kts | 102° |
| 2026-04-12 04:05 | 57.56049 | 40.16476 | 320 ft | 16 kts | 187° |
| 2026-04-12 04:05 | 57.55966 | 40.16337 | 320 ft | 16 kts | 166° |
| 2026-04-12 04:05 | 57.55849 | 40.16362 | 320 ft | 20 kts | 207° |
| 2026-04-12 04:06 | 57.55782 | 40.16375 | 320 ft | 0 kts | 156° |
| 2026-04-12 04:08 | 57.54672 | 40.13844 | 320 ft | 126 kts | 156° |
| 2026-04-12 04:09 | 57.54434 | 40.14039 | 307 ft | 77 kts | 156° |
| 2026-04-12 04:11 | 57.56327 | 40.17454 | 320 ft | 0 kts | 154° |